createdAt,value
2022-08-25T00:01:55.151Z,87.50
2022-08-25T00:04:23.101Z,87.57
2022-08-25T00:06:50.450Z,87.21
2022-08-25T00:09:18.811Z,87.24
2022-08-25T00:11:49.394Z,87.68
2022-08-25T00:14:21.269Z,87.91
2022-08-25T00:16:48.520Z,87.37
2022-08-25T00:19:17.507Z,87.12
2022-08-25T00:21:45.471Z,86.42
2022-08-25T00:24:13.108Z,87.38
2022-08-25T00:26:43.913Z,87.22
2022-08-25T00:29:11.251Z,86.95
2022-08-25T00:31:39.271Z,87.05
2022-08-25T00:34:07.903Z,87.39
2022-08-25T00:36:34.764Z,86.97
2022-08-25T00:39:01.872Z,87.04
2022-08-25T00:41:29.153Z,87.07
2022-08-25T00:43:57.445Z,87.24
2022-08-25T00:46:29.580Z,86.62
2022-08-25T00:49:02.252Z,86.97
2022-08-25T00:51:35.220Z,87.37
2022-08-25T00:54:03.039Z,87.62
2022-08-25T00:56:31.837Z,88.26
2022-08-25T00:58:59.723Z,87.98
2022-08-25T01:01:26.902Z,88.35
2022-08-25T01:03:54.322Z,88.72
2022-08-25T01:06:21.478Z,88.05
2022-08-25T01:08:48.520Z,88.45
2022-08-25T01:11:15.731Z,89.06
2022-08-25T01:13:47.599Z,89.11
2022-08-25T01:16:15.613Z,89.01
2022-08-25T01:18:53.362Z,88.88
2022-08-25T01:21:25.388Z,88.67
2022-08-25T01:23:53.046Z,88.25
2022-08-25T01:26:30.315Z,88.50
2022-08-25T01:29:18.597Z,89.38
2022-08-25T01:32:04.802Z,89.37
2022-08-25T01:34:38.768Z,89.60
2022-08-25T01:37:06.008Z,89.21
2022-08-25T01:39:34.123Z,88.91
2022-08-25T01:42:05.524Z,88.45
2022-08-25T01:45:06.983Z,89.07
2022-08-25T01:48:19.632Z,89.22
2022-08-25T01:51:05.054Z,89.41
2022-08-25T01:53:47.506Z,89.34
2022-08-25T01:56:15.561Z,89.45
2022-08-25T01:59:24.065Z,89.02
2022-08-25T02:01:57.436Z,89.29
2022-08-25T02:04:29.587Z,88.82
2022-08-25T02:06:56.473Z,88.62
2022-08-25T02:09:23.291Z,88.63
2022-08-25T02:11:50.985Z,88.87
2022-08-25T02:14:18.521Z,88.03
2022-08-25T02:16:49.867Z,88.34
2022-08-25T02:19:17.993Z,89.69
2022-08-25T02:21:57.227Z,90.75
2022-08-25T02:24:27.344Z,90.96
2022-08-25T02:26:54.346Z,90.94
2022-08-25T02:29:21.418Z,91.91
2022-08-25T02:31:51.617Z,91.95
2022-08-25T02:34:18.562Z,92.20
2022-08-25T02:36:45.353Z,92.05
2022-08-25T02:39:12.774Z,92.21
2022-08-25T02:41:40.286Z,92.37
2022-08-25T02:44:07.574Z,91.74
2022-08-25T02:46:35.082Z,91.54
2022-08-25T02:49:01.934Z,91.54
2022-08-25T02:51:30.413Z,91.72
2022-08-25T02:53:59.076Z,91.58
2022-08-25T02:56:25.953Z,90.55
2022-08-25T02:58:52.872Z,90.72
2022-08-25T03:01:20.397Z,90.92
2022-08-25T03:03:49.505Z,91.51
2022-08-25T03:06:18.277Z,91.69
2022-08-25T03:08:45.759Z,90.91
2022-08-25T03:11:12.874Z,90.24
2022-08-25T03:13:40.095Z,90.43
2022-08-25T03:16:11.374Z,90.65
2022-08-25T03:18:40.876Z,90.38
2022-08-25T03:21:07.981Z,91.05
2022-08-25T03:23:35.150Z,90.89
2022-08-25T03:26:20.291Z,90.95
2022-08-25T03:28:47.322Z,91.34
2022-08-25T03:31:14.112Z,91.65
2022-08-25T03:33:41.109Z,92.05
2022-08-25T03:36:09.020Z,92.45
2022-08-25T03:38:38.403Z,91.98
2022-08-25T03:41:25.643Z,92.50
2022-08-25T03:43:55.569Z,93.14
2022-08-25T03:46:23.945Z,93.46
2022-08-25T03:48:52.044Z,94.10
2022-08-25T03:51:30.026Z,94.36
2022-08-25T03:53:57.088Z,95.03
2022-08-25T03:56:24.183Z,94.89
2022-08-25T03:58:51.439Z,95.61
2022-08-25T04:01:18.444Z,95.96
2022-08-25T04:03:46.082Z,96.28
2022-08-25T04:06:12.956Z,96.24
2022-08-25T04:08:39.789Z,96.62
2022-08-25T04:11:10.829Z,96.56
2022-08-25T04:13:37.765Z,96.89
2022-08-25T04:16:10.103Z,96.90
2022-08-25T04:18:37.231Z,97.65
2022-08-25T04:21:05.357Z,97.86
2022-08-25T04:23:32.769Z,97.79
2022-08-25T04:25:59.889Z,98.71
2022-08-25T04:28:26.732Z,98.79
2022-08-25T04:30:53.654Z,98.99
2022-08-25T04:33:20.650Z,98.68
2022-08-25T04:35:48.793Z,99.07
2022-08-25T04:38:15.604Z,99.98
2022-08-25T04:40:42.671Z,100.00
2022-08-25T04:43:09.471Z,100.00
2022-08-25T04:45:37.196Z,100.00
2022-08-25T04:48:04.563Z,100.00
2022-08-25T04:50:31.527Z,100.00
2022-08-25T04:52:58.402Z,100.00
2022-08-25T04:55:25.529Z,100.00
2022-08-25T04:57:52.297Z,100.00
2022-08-25T05:00:19.365Z,100.00
2022-08-25T05:02:46.491Z,100.00
2022-08-25T05:05:13.375Z,100.00
2022-08-25T05:07:41.309Z,99.75
2022-08-25T05:10:09.603Z,100.00
2022-08-25T05:12:36.523Z,100.00
2022-08-25T05:15:24.432Z,100.00
2022-08-25T05:17:55.321Z,100.00
2022-08-25T05:20:23.584Z,100.00
2022-08-25T05:22:50.515Z,100.00
2022-08-25T05:25:18.133Z,100.00
2022-08-25T05:27:45.243Z,100.00
2022-08-25T05:30:12.804Z,100.00
2022-08-25T05:32:40.035Z,100.00
2022-08-25T05:35:07.680Z,100.00
2022-08-25T05:37:34.793Z,100.00
2022-08-25T05:40:02.035Z,100.00
2022-08-25T05:42:29.211Z,100.00
2022-08-25T05:44:56.407Z,100.00
2022-08-25T05:47:24.306Z,100.00
2022-08-25T05:49:51.213Z,100.00
2022-08-25T05:52:20.313Z,100.00
2022-08-25T05:54:47.882Z,100.00
2022-08-25T05:57:14.796Z,100.00
2022-08-25T05:59:41.699Z,100.00
2022-08-25T06:02:27.307Z,99.93
2022-08-25T06:04:54.191Z,100.00
2022-08-25T06:07:21.264Z,100.00
2022-08-25T06:09:50.103Z,100.00
2022-08-25T06:12:17.649Z,100.00
2022-08-25T06:14:44.963Z,100.00
2022-08-25T06:17:11.995Z,100.00
2022-08-25T06:19:41.260Z,100.00
2022-08-25T06:22:08.745Z,100.00
2022-08-25T06:24:36.116Z,100.00
2022-08-25T06:27:03.193Z,100.00
2022-08-25T06:29:30.365Z,100.00
2022-08-25T06:31:57.293Z,100.00
2022-08-25T06:34:24.465Z,100.00
2022-08-25T06:36:51.778Z,100.00
2022-08-25T06:39:18.822Z,100.00
2022-08-25T06:41:45.731Z,99.86
2022-08-25T06:44:12.930Z,100.00
2022-08-25T06:46:39.922Z,98.76
2022-08-25T06:49:07.067Z,97.04
2022-08-25T06:51:38.071Z,96.13
2022-08-25T06:54:07.110Z,99.92
2022-08-25T06:56:34.438Z,97.88
2022-08-25T06:59:05.279Z,95.78
2022-08-25T07:01:32.489Z,93.17
2022-08-25T07:04:00.757Z,92.38
2022-08-25T07:06:29.122Z,91.96
2022-08-25T07:08:56.008Z,90.83
2022-08-25T07:11:23.074Z,89.48
2022-08-25T07:13:50.848Z,88.79
2022-08-25T07:16:18.899Z,89.11
2022-08-25T07:18:47.622Z,87.71
2022-08-25T07:21:15.177Z,87.87
2022-08-25T07:23:42.259Z,86.16
2022-08-25T07:29:02.353Z,85.49
2022-08-25T07:31:30.263Z,86.48
2022-08-25T07:34:16.379Z,85.29
2022-08-25T07:36:43.897Z,83.24
2022-08-25T07:39:10.776Z,84.73
2022-08-25T07:41:38.824Z,83.34
2022-08-25T07:44:07.099Z,81.80
2022-08-25T07:46:34.355Z,81.64
2022-08-25T07:49:02.017Z,80.74
2022-08-25T07:51:29.393Z,80.05
2022-08-25T07:53:56.406Z,79.44
2022-08-25T07:56:23.730Z,77.90
2022-08-25T07:58:51.329Z,74.63
2022-08-25T08:01:19.955Z,70.66
2022-08-25T08:03:51.117Z,68.75
2022-08-25T08:06:20.213Z,69.01
2022-08-25T08:08:49.714Z,67.89
2022-08-25T08:11:27.406Z,67.02
2022-08-25T08:13:55.757Z,62.08
2022-08-25T08:16:24.034Z,59.57
2022-08-25T08:18:50.942Z,57.98
2022-08-25T08:21:29.655Z,56.73
2022-08-25T08:23:59.112Z,52.07
2022-08-25T08:26:48.356Z,52.91
2022-08-25T08:29:16.494Z,49.03
2022-08-25T08:31:48.358Z,44.72
2022-08-25T08:34:16.471Z,45.99
2022-08-25T08:36:43.549Z,48.76
2022-08-25T08:39:12.793Z,50.21
2022-08-25T08:42:17.175Z,49.44
2022-08-25T08:44:46.060Z,51.37
2022-08-25T08:47:22.466Z,52.46
2022-08-25T08:49:56.719Z,52.71
2022-08-25T08:52:29.114Z,53.66
2022-08-25T08:55:01.179Z,55.17
2022-08-25T08:57:29.310Z,57.25
2022-08-25T09:00:01.303Z,57.37
2022-08-25T09:02:38.665Z,55.10
2022-08-25T09:05:11.824Z,51.22
2022-08-25T09:07:48.780Z,45.87
2022-08-25T09:10:23.095Z,42.46
2022-08-25T09:12:58.063Z,40.21
2022-08-25T09:15:25.665Z,40.96
2022-08-25T09:17:59.008Z,39.74
2022-08-25T09:20:41.156Z,41.69
2022-08-25T09:23:08.243Z,43.99
2022-08-25T09:25:54.348Z,44.24
2022-08-25T09:28:28.655Z,42.56
2022-08-25T09:31:00.738Z,43.17
2022-08-25T09:33:29.268Z,45.30
2022-08-25T09:35:57.277Z,45.70
2022-08-25T09:38:26.368Z,45.69
2022-08-25T09:40:58.044Z,46.04
2022-08-25T09:43:28.369Z,47.70
2022-08-25T09:46:00.487Z,48.84
2022-08-25T09:48:40.836Z,48.24
2022-08-25T09:51:24.007Z,45.91
2022-08-25T09:53:59.999Z,45.81
2022-08-25T09:56:29.002Z,44.31
2022-08-25T09:59:02.430Z,44.22
2022-08-25T10:01:32.106Z,45.71
2022-08-25T10:04:06.840Z,45.40
2022-08-25T10:06:47.584Z,44.47
2022-08-25T10:09:27.094Z,41.96
2022-08-25T10:11:57.682Z,39.53
2022-08-25T10:14:24.864Z,38.22
2022-08-25T10:16:53.604Z,37.05
2022-08-25T10:19:24.046Z,36.32
2022-08-25T10:22:10.879Z,35.33
2022-08-25T10:24:41.062Z,34.72
2022-08-25T10:27:30.113Z,36.58
2022-08-25T10:29:57.606Z,35.72
2022-08-25T10:32:43.150Z,37.35
2022-08-25T10:35:15.609Z,39.80
2022-08-25T10:37:44.621Z,40.16
2022-08-25T10:40:19.121Z,39.73
2022-08-25T10:42:46.253Z,39.09
2022-08-25T10:45:33.010Z,37.38
2022-08-25T10:48:10.663Z,39.26
2022-08-25T10:50:45.517Z,40.77
2022-08-25T10:53:16.959Z,41.00
2022-08-25T10:55:56.237Z,41.75
2022-08-25T10:58:44.025Z,42.74
2022-08-25T11:01:34.704Z,39.41
2022-08-25T11:04:10.404Z,39.15
2022-08-25T11:06:40.628Z,40.17
2022-08-25T11:09:10.407Z,37.38
2022-08-25T11:11:39.332Z,35.11
2022-08-25T11:14:11.608Z,33.09
2022-08-25T11:16:40.568Z,32.41
2022-08-25T11:19:16.938Z,31.28
2022-08-25T11:22:04.034Z,30.57
2022-08-25T11:24:37.525Z,29.03
2022-08-25T11:27:06.458Z,28.81
2022-08-25T11:29:36.898Z,27.78
2022-08-25T11:32:06.517Z,29.93
2022-08-25T11:34:35.206Z,34.19
2022-08-25T11:37:14.683Z,33.86
2022-08-25T11:39:44.767Z,32.47
2022-08-25T11:42:27.826Z,30.62
2022-08-25T11:45:12.792Z,29.23
2022-08-25T11:47:59.953Z,28.57
2022-08-25T11:50:35.578Z,29.71
2022-08-25T11:53:12.350Z,30.32
2022-08-25T11:55:41.987Z,29.99
2022-08-25T11:58:27.635Z,29.70
2022-08-25T12:01:00.229Z,29.93
2022-08-25T12:03:36.434Z,31.67
2022-08-25T12:06:09.354Z,31.05
2022-08-25T12:08:52.395Z,29.44
2022-08-25T12:11:37.659Z,30.04
2022-08-25T12:14:14.359Z,30.26
2022-08-25T12:16:43.621Z,32.41
2022-08-25T12:19:29.119Z,36.17
2022-08-25T12:22:16.280Z,37.03
2022-08-25T12:24:47.666Z,36.85
2022-08-25T12:27:33.544Z,38.69
2022-08-25T12:30:22.102Z,38.40
2022-08-25T12:33:01.986Z,37.40
2022-08-25T12:35:31.449Z,39.64
2022-08-25T12:37:58.509Z,40.51
2022-08-25T12:40:27.838Z,41.95
2022-08-25T12:43:04.202Z,43.52
2022-08-25T12:45:55.376Z,44.13
2022-08-25T12:48:29.056Z,44.55
2022-08-25T12:51:07.930Z,44.13
2022-08-25T12:53:37.989Z,44.75
2022-08-25T12:56:10.418Z,46.28
2022-08-25T12:59:00.377Z,47.18
2022-08-25T13:01:35.201Z,47.53
2022-08-25T13:04:15.049Z,49.73
2022-08-25T13:07:06.851Z,50.92
2022-08-25T13:09:47.154Z,50.80
2022-08-25T13:12:14.387Z,50.74
2022-08-25T13:14:43.990Z,51.07
2022-08-25T13:17:11.337Z,50.54
2022-08-25T13:19:38.928Z,51.90
2022-08-25T13:22:16.612Z,51.18
2022-08-25T13:24:45.372Z,51.34
2022-08-25T13:27:24.477Z,50.31
2022-08-25T13:30:03.853Z,51.99
2022-08-25T13:32:36.391Z,51.99
2022-08-25T13:35:09.538Z,51.45
2022-08-25T13:37:36.767Z,51.91
2022-08-25T13:40:11.299Z,51.51
2022-08-25T13:42:43.714Z,52.43
2022-08-25T13:45:16.907Z,53.08
2022-08-25T13:47:45.596Z,52.85
2022-08-25T13:50:34.354Z,52.68
2022-08-25T13:53:04.361Z,52.72
2022-08-25T13:55:31.212Z,53.81
2022-08-25T13:58:12.862Z,53.88
2022-08-25T14:00:47.260Z,53.65
2022-08-25T14:03:33.490Z,52.92
2022-08-25T14:06:06.238Z,52.88
2022-08-25T14:08:38.725Z,54.43
2022-08-25T14:11:14.609Z,53.46
2022-08-25T14:13:44.574Z,53.23
2022-08-25T14:16:25.552Z,53.28
2022-08-25T14:18:57.790Z,53.66
2022-08-25T14:21:27.369Z,53.39
2022-08-25T14:23:55.436Z,53.29
2022-08-25T14:26:22.900Z,54.14
2022-08-25T14:28:50.268Z,54.54
2022-08-25T14:31:23.864Z,54.42
2022-08-25T14:34:02.750Z,54.64
2022-08-25T14:36:30.722Z,54.31
2022-08-25T14:38:57.741Z,54.23
2022-08-25T14:41:25.960Z,54.77
2022-08-25T14:43:54.001Z,54.80
2022-08-25T14:46:25.337Z,53.55
2022-08-25T14:48:55.578Z,54.01
2022-08-25T14:51:23.665Z,54.47
2022-08-25T14:53:53.052Z,54.84
2022-08-25T14:56:20.016Z,54.16
2022-08-25T14:58:51.535Z,54.26
2022-08-25T15:01:28.561Z,54.17
2022-08-25T15:04:01.441Z,54.83
2022-08-25T15:06:28.662Z,54.34
2022-08-25T15:09:11.557Z,54.30
2022-08-25T15:11:41.569Z,54.50
2022-08-25T15:14:10.777Z,53.93
2022-08-25T15:16:43.105Z,54.31
2022-08-25T15:19:15.725Z,54.88
2022-08-25T15:21:43.743Z,54.14
2022-08-25T15:24:11.680Z,54.47
2022-08-25T15:26:41.562Z,54.13
2022-08-25T15:29:08.979Z,54.01
2022-08-25T15:31:36.762Z,54.10
2022-08-25T15:34:06.322Z,54.97
2022-08-25T15:36:34.290Z,53.98
2022-08-25T15:39:01.744Z,53.93
2022-08-25T15:41:31.550Z,54.72
2022-08-25T15:44:00.378Z,55.38
2022-08-25T15:46:30.325Z,54.74
2022-08-25T15:48:59.579Z,54.13
2022-08-25T15:51:27.334Z,54.24
2022-08-25T15:53:54.586Z,54.35
2022-08-25T15:56:26.809Z,54.14
2022-08-25T15:58:55.757Z,54.65
2022-08-25T16:01:27.510Z,54.06
2022-08-25T16:03:57.603Z,54.15
2022-08-25T16:06:26.222Z,54.36
2022-08-25T16:08:53.713Z,54.20
2022-08-25T16:11:22.186Z,54.57
2022-08-25T16:13:51.754Z,54.20
2022-08-25T16:16:19.517Z,54.58
2022-08-25T16:18:46.850Z,54.66
2022-08-25T16:21:17.017Z,54.38
2022-08-25T16:23:44.722Z,53.75
2022-08-25T16:26:12.950Z,54.95
2022-08-25T16:28:43.745Z,54.62
2022-08-25T16:31:12.398Z,55.07
2022-08-25T16:36:09.454Z,55.41
2022-08-25T16:38:36.914Z,55.18
2022-08-25T16:41:08.923Z,54.99
2022-08-25T16:43:36.749Z,54.74
2022-08-25T16:46:06.789Z,54.71
2022-08-25T16:48:34.106Z,54.81
2022-08-25T16:51:01.358Z,54.86
2022-08-25T16:53:47.320Z,55.27
2022-08-25T16:56:15.972Z,55.76
2022-08-25T16:58:43.348Z,56.02
2022-08-25T17:01:12.961Z,56.17
2022-08-25T17:03:44.044Z,56.13
2022-08-25T17:06:11.247Z,56.03
2022-08-25T17:08:38.168Z,57.06
2022-08-25T17:11:06.997Z,57.51
2022-08-25T17:13:34.637Z,56.78
2022-08-25T17:16:03.151Z,56.89
2022-08-25T17:18:30.702Z,56.68
2022-08-25T17:20:58.844Z,57.35
2022-08-25T17:23:25.763Z,57.39
2022-08-25T17:25:52.880Z,57.18
2022-08-25T17:28:19.747Z,57.74
2022-08-25T17:30:48.703Z,57.53
2022-08-25T17:33:16.027Z,58.35
2022-08-25T17:35:44.398Z,58.21
2022-08-25T17:38:11.900Z,57.83
2022-08-25T17:40:39.476Z,57.54
2022-08-25T17:43:08.912Z,57.18
2022-08-25T17:45:36.252Z,57.78
2022-08-25T17:48:03.907Z,57.91
2022-08-25T17:50:31.689Z,58.36
2022-08-25T17:53:01.303Z,58.53
2022-08-25T17:55:28.684Z,58.68
2022-08-25T17:57:55.578Z,58.57
2022-08-25T18:00:22.998Z,58.57
2022-08-25T18:02:51.097Z,59.63
2022-08-25T18:05:18.294Z,59.93
2022-08-25T18:07:45.274Z,60.18
2022-08-25T18:10:12.609Z,60.77
2022-08-25T18:12:39.813Z,60.86
2022-08-25T18:15:08.191Z,61.02
2022-08-25T18:17:36.077Z,61.26
2022-08-25T18:20:06.297Z,61.14
2022-08-25T18:22:33.489Z,61.68
2022-08-25T18:25:01.395Z,62.26
2022-08-25T18:27:29.994Z,62.49
2022-08-25T18:29:57.789Z,63.29
2022-08-25T18:32:25.983Z,63.41
2022-08-25T18:34:54.649Z,63.86
2022-08-25T18:37:40.575Z,63.72
2022-08-25T18:40:22.990Z,64.80
2022-08-25T18:42:55.206Z,65.07
2022-08-25T18:45:23.630Z,65.50
2022-08-25T18:47:56.326Z,65.78
2022-08-25T18:50:24.319Z,65.69
2022-08-25T18:52:51.971Z,66.31
2022-08-25T18:58:00.631Z,67.34
2022-08-25T19:00:28.863Z,67.71
2022-08-25T19:02:57.431Z,68.25
2022-08-25T19:05:27.040Z,68.10
2022-08-25T19:07:56.226Z,68.79
2022-08-25T19:10:24.069Z,68.89
2022-08-25T19:12:52.262Z,69.07
2022-08-25T19:15:24.683Z,69.80
2022-08-25T19:17:53.468Z,69.84
2022-08-25T19:20:21.049Z,70.13
2022-08-25T19:22:47.987Z,70.43
2022-08-25T19:25:16.001Z,70.18
2022-08-25T19:27:43.699Z,70.77
2022-08-25T19:30:12.495Z,70.73
2022-08-25T19:32:42.479Z,71.05
2022-08-25T19:35:12.424Z,71.20
2022-08-25T19:37:40.841Z,71.69
2022-08-25T19:40:08.826Z,71.71
2022-08-25T19:42:38.611Z,72.02
2022-08-25T19:45:06.441Z,71.56
2022-08-25T19:47:33.920Z,71.49
2022-08-25T19:50:01.107Z,71.25
2022-08-25T19:52:28.819Z,72.03
2022-08-25T19:54:55.987Z,72.10
2022-08-25T19:57:28.367Z,72.01
2022-08-25T20:00:11.830Z,72.16
2022-08-25T20:02:39.691Z,71.93
2022-08-25T20:05:06.985Z,72.47
2022-08-25T20:07:35.520Z,72.32
2022-08-25T20:10:04.425Z,72.20
2022-08-25T20:12:31.588Z,72.34
2022-08-25T20:14:59.398Z,72.64
2022-08-25T20:17:28.665Z,72.32
2022-08-25T20:19:57.710Z,72.95
2022-08-25T20:22:27.150Z,72.85
2022-08-25T20:24:58.045Z,72.91
2022-08-25T20:27:37.409Z,72.86
2022-08-25T20:30:06.843Z,73.03
2022-08-25T20:32:34.996Z,72.89
2022-08-25T20:35:05.147Z,72.91
2022-08-25T20:37:36.856Z,72.85
2022-08-25T20:40:05.058Z,73.70
2022-08-25T20:42:34.603Z,74.08
2022-08-25T20:45:02.048Z,73.42
2022-08-25T20:47:29.309Z,73.79
2022-08-25T20:49:58.357Z,73.60
2022-08-25T20:52:26.191Z,73.97
2022-08-25T20:54:53.540Z,74.21
2022-08-25T20:57:24.331Z,74.37
2022-08-25T20:59:53.083Z,74.38
2022-08-25T21:02:20.385Z,74.67
2022-08-25T21:04:50.136Z,74.82
2022-08-25T21:07:18.650Z,75.30
2022-08-25T21:09:46.134Z,75.01
2022-08-25T21:12:13.171Z,74.70
2022-08-25T21:14:41.558Z,75.06
2022-08-25T21:17:10.793Z,75.11
2022-08-25T21:19:39.890Z,75.24
2022-08-25T21:22:07.701Z,75.01
2022-08-25T21:24:34.899Z,75.72
2022-08-25T21:27:03.751Z,76.08
2022-08-25T21:29:32.904Z,76.79
2022-08-25T21:32:00.204Z,76.91
2022-08-25T21:34:28.928Z,77.08
2022-08-25T21:37:00.048Z,77.58
2022-08-25T21:39:28.267Z,77.84
2022-08-25T21:41:56.582Z,78.01
2022-08-25T21:44:24.096Z,78.21
2022-08-25T21:54:33.226Z,80.35
2022-08-25T21:57:02.195Z,79.37
2022-08-25T21:59:30.590Z,79.05
2022-08-25T22:01:59.397Z,78.91
2022-08-25T22:04:28.173Z,78.78
2022-08-25T22:06:55.858Z,78.78
2022-08-25T22:09:25.213Z,78.23
2022-08-25T22:11:54.666Z,77.91
2022-08-25T22:14:22.046Z,77.72
2022-08-25T22:16:49.016Z,77.82
2022-08-25T22:19:16.118Z,77.47
2022-08-25T22:21:43.488Z,77.09
2022-08-25T22:24:10.556Z,76.17
2022-08-25T22:26:38.008Z,76.30
2022-08-25T22:29:05.233Z,76.31
2022-08-25T22:31:33.738Z,77.10
2022-08-25T22:34:01.026Z,77.34
2022-08-25T22:36:31.270Z,77.04
2022-08-25T22:38:58.424Z,77.76
2022-08-25T22:41:27.079Z,77.93
2022-08-25T22:43:55.530Z,78.15
2022-08-25T22:46:23.562Z,78.21
2022-08-25T22:48:51.465Z,78.23
2022-08-25T22:51:20.190Z,77.48
2022-08-25T22:53:48.092Z,77.60
2022-08-25T22:56:17.462Z,77.80
2022-08-25T22:58:51.567Z,77.71
2022-08-25T23:01:20.302Z,78.44
2022-08-25T23:03:48.050Z,79.29
2022-08-25T23:06:20.802Z,79.67
2022-08-25T23:08:52.789Z,79.31
2022-08-25T23:11:21.361Z,80.03
2022-08-25T23:13:48.580Z,80.26
2022-08-25T23:16:16.174Z,79.49
2022-08-25T23:18:45.067Z,79.38
2022-08-25T23:21:35.136Z,79.59
2022-08-25T23:24:05.738Z,79.83
2022-08-25T23:26:33.468Z,79.81
2022-08-25T23:29:00.703Z,80.18
2022-08-25T23:31:30.541Z,79.71
2022-08-25T23:33:58.498Z,79.05
2022-08-25T23:36:25.981Z,79.06
2022-08-25T23:38:53.092Z,79.43
2022-08-25T23:41:22.775Z,79.72
2022-08-25T23:43:50.204Z,80.32
2022-08-25T23:46:18.451Z,80.67
2022-08-25T23:48:45.296Z,81.68
2022-08-25T23:51:13.159Z,81.70
2022-08-25T23:53:40.213Z,81.95
2022-08-25T23:56:07.432Z,81.67
2022-08-25T23:58:35.961Z,81.04
